Terminal Aerodrome Forecast
Issued by NWS

Home | Current Version | Previous Version | Text Only | Print | Product List | Glossary On
Versions: 1 2 3 4 5 6 7 8 9 10 11 12 13 14 15 16 17 18 19 20 21 22 23 24 25 26 27 28 29 30
000
FTUS43 KDMX 120538
TAFMCW
TAF
KMCW 120538Z 1206/1306 25005KT P6SM SCT015 OVC025
     FM121100 32014KT P6SM SCT015 BKN035
     FM121500 34020G27KT P6SM SCT020
     FM130100 32012KT P6SM FEW020 SCT200=

USA.gov is the U.S. government's official web portal to all federal, state and local government web resources and services.